sensor_id;sensor_type;location;lat;lon;timestamp;pressure;altitude;pressure_sealevel;temperature;humidity
22930;BME280;11630;42.660;23.292;2023-04-22T00:01:24;68628.73;;;9.93;100.00
22930;BME280;11630;42.660;23.292;2023-04-22T00:03:55;68601.83;;;9.67;100.00
22930;BME280;11630;42.660;23.292;2023-04-22T00:06:25;68594.48;;;9.59;100.00
22930;BME280;11630;42.660;23.292;2023-04-22T00:08:58;68614.33;;;9.79;100.00
22930;BME280;11630;42.660;23.292;2023-04-22T00:11:30;68624.39;;;9.92;100.00
22930;BME280;11630;42.660;23.292;2023-04-22T00:14:01;68632.00;;;9.96;100.00
22930;BME280;11630;42.660;23.292;2023-04-22T00:16:31;68638.81;;;10.03;100.00
22930;BME280;11630;42.660;23.292;2023-04-22T00:19:03;68647.77;;;10.05;100.00
22930;BME280;11630;42.660;23.292;2023-04-22T00:21:40;68626.58;;;9.93;100.00
22930;BME280;11630;42.660;23.292;2023-04-22T00:24:11;68606.47;;;9.75;100.00
22930;BME280;11630;42.660;23.292;2023-04-22T00:26:47;68592.60;;;9.61;100.00
22930;BME280;11630;42.660;23.292;2023-04-22T00:29:13;68586.35;;;9.54;100.00
22930;BME280;11630;42.660;23.292;2023-04-22T00:31:44;68589.06;;;9.59;100.00
22930;BME280;11630;42.660;23.292;2023-04-22T00:34:16;68604.28;;;9.71;100.00
22930;BME280;11630;42.660;23.292;2023-04-22T00:36:47;68614.07;;;9.82;100.00
22930;BME280;11630;42.660;23.292;2023-04-22T00:39:22;68595.84;;;9.62;100.00
22930;BME280;11630;42.660;23.292;2023-04-22T00:41:52;68591.78;;;9.59;100.00
22930;BME280;11630;42.660;23.292;2023-04-22T00:44:23;68595.59;;;9.65;100.00
22930;BME280;11630;42.660;23.292;2023-04-22T00:46:55;68605.08;;;9.70;100.00
22930;BME280;11630;42.660;23.292;2023-04-22T00:49:26;68608.62;;;9.75;100.00
22930;BME280;11630;42.660;23.292;2023-04-22T00:51:58;68612.69;;;9.77;100.00
22930;BME280;11630;42.660;23.292;2023-04-22T00:54:35;68600.47;;;9.65;100.00
22930;BME280;11630;42.660;23.292;2023-04-22T00:57:06;68586.35;;;9.54;100.00
22930;BME280;11630;42.660;23.292;2023-04-22T00:59:40;68580.89;;;9.44;100.00
22930;BME280;11630;42.660;23.292;2023-04-22T01:02:11;68571.38;;;9.37;100.00
22930;BME280;11630;42.660;23.292;2023-04-22T01:04:42;68573.85;;;9.43;100.00
22930;BME280;11630;42.660;23.292;2023-04-22T01:07:14;68567.30;;;9.32;100.00
22930;BME280;11630;42.660;23.292;2023-04-22T01:09:44;68561.09;;;9.32;100.00
22930;BME280;11630;42.660;23.292;2023-04-22T01:12:15;68534.45;;;9.08;100.00
22930;BME280;11630;42.660;23.292;2023-04-22T01:14:46;68539.08;;;9.14;100.00
22930;BME280;11630;42.660;23.292;2023-04-22T01:17:18;68553.45;;;9.20;100.00
22930;BME280;11630;42.660;23.292;2023-04-22T01:19:49;68529.30;;;9.05;100.00
22930;BME280;11630;42.660;23.292;2023-04-22T01:22:21;68522.25;;;8.98;100.00
22930;BME280;11630;42.660;23.292;2023-04-22T01:24:52;68504.03;;;8.78;100.00
22930;BME280;11630;42.660;23.292;2023-04-22T01:27:23;68494.26;;;8.71;100.00
22930;BME280;11630;42.660;23.292;2023-04-22T01:29:55;68491.55;;;8.69;100.00
22930;BME280;11630;42.660;23.292;2023-04-22T01:32:25;68479.61;;;8.58;100.00
22930;BME280;11630;42.660;23.292;2023-04-22T01:34:55;68482.59;;;8.62;100.00
22930;BME280;11630;42.660;23.292;2023-04-22T01:37:27;68494.26;;;8.71;100.00
22930;BME280;11630;42.660;23.292;2023-04-22T01:39:58;68507.84;;;8.84;100.00
22930;BME280;11630;42.660;23.292;2023-04-22T01:42:30;68517.63;;;8.93;100.00
22930;BME280;11630;42.660;23.292;2023-04-22T01:45:01;68520.60;;;8.97;100.00
22930;BME280;11630;42.660;23.292;2023-04-22T01:47:32;68527.67;;;9.03;100.00
22930;BME280;11630;42.660;23.292;2023-04-22T01:50:03;68530.64;;;9.00;100.00
22930;BME280;11630;42.660;23.292;2023-04-22T01:52:35;68517.89;;;8.92;100.00
22930;BME280;11630;42.660;23.292;2023-04-22T01:55:07;68507.58;;;8.85;100.00
22930;BME280;11630;42.660;23.292;2023-04-22T01:57:38;68517.89;;;8.92;100.00
22930;BME280;11630;42.660;23.292;2023-04-22T02:00:10;68514.61;;;8.86;100.00
22930;BME280;11630;42.660;23.292;2023-04-22T02:02:41;68511.91;;;8.84;100.00
22930;BME280;11630;42.660;23.292;2023-04-22T02:05:12;68511.08;;;8.82;100.00
22930;BME280;11630;42.660;23.292;2023-04-22T02:07:44;68535.53;;;9.04;100.00
22930;BME280;11630;42.660;23.292;2023-04-22T02:10:15;68549.39;;;9.18;100.00
22930;BME280;11630;42.660;23.292;2023-04-22T02:12:45;68556.45;;;9.24;100.00
22930;BME280;11630;42.660;23.292;2023-04-22T02:15:15;68558.09;;;9.28;100.00
22930;BME280;11630;42.660;23.292;2023-04-22T02:17:46;68570.05;;;9.39;100.00
22930;BME280;11630;42.660;23.292;2023-04-22T02:20:16;68587.70;;;9.54;100.00
22930;BME280;11630;42.660;23.292;2023-04-22T02:22:48;68596.12;;;9.63;100.00
22930;BME280;11630;42.660;23.292;2023-04-22T02:25:19;68603.72;;;9.65;100.00
22930;BME280;11630;42.660;23.292;2023-04-22T02:27:50;68599.38;;;9.64;100.00
22930;BME280;11630;42.660;23.292;2023-04-22T02:30:24;68601.01;;;9.65;100.00
22930;BME280;11630;42.660;23.292;2023-04-22T02:32:56;68598.56;;;9.64;100.00
22930;BME280;11630;42.660;23.292;2023-04-22T02:35:27;68600.75;;;9.69;100.00
22930;BME280;11630;42.660;23.292;2023-04-22T02:37:57;68623.00;;;9.79;100.00
22930;BME280;11630;42.660;23.292;2023-04-22T02:40:28;68608.88;;;9.74;100.00
22930;BME280;11630;42.660;23.292;2023-04-22T02:42:59;68615.42;;;9.82;100.00
22930;BME280;11630;42.660;23.292;2023-04-22T02:45:30;68608.91;;;9.76;100.00
22930;BME280;11630;42.660;23.292;2023-04-22T02:48:01;68620.02;;;9.80;100.00
22930;BME280;11630;42.660;23.292;2023-04-22T02:50:31;68601.84;;;9.72;100.00
22930;BME280;11630;42.660;23.292;2023-04-22T02:53:02;68616.78;;;9.80;100.00
22930;BME280;11630;42.660;23.292;2023-04-22T02:55:33;68589.33;;;9.58;100.00
22930;BME280;11630;42.660;23.292;2023-04-22T02:58:03;68591.52;;;9.60;100.00
22930;BME280;11630;42.660;23.292;2023-04-22T03:00:34;68587.70;;;9.54;100.00
22930;BME280;11630;42.660;23.292;2023-04-22T03:03:05;68599.65;;;9.63;100.00
22930;BME280;11630;42.660;23.292;2023-04-22T03:05:37;68589.06;;;9.59;100.00
22930;BME280;11630;42.660;23.292;2023-04-22T03:08:08;68584.16;;;9.47;100.00
22930;BME280;11630;42.660;23.292;2023-04-22T03:10:38;68557.55;;;9.30;100.00
22930;BME280;11630;42.660;23.292;2023-04-22T03:13:11;68548.33;;;9.24;100.00
22930;BME280;11630;42.660;23.292;2023-04-22T03:15:43;68558.09;;;9.28;100.00
22930;BME280;11630;42.660;23.292;2023-04-22T03:18:15;68539.61;;;9.12;100.00
22930;BME280;11630;42.660;23.292;2023-04-22T03:20:45;68521.95;;;8.94;100.00
22930;BME280;11630;42.660;23.292;2023-04-22T03:23:16;68522.77;;;8.94;100.00
22930;BME280;11630;42.660;23.292;2023-04-22T03:25:47;68521.69;;;8.95;100.00
22930;BME280;11630;42.660;23.292;2023-04-22T03:28:18;68505.95;;;8.81;100.00
22930;BME280;11630;42.660;23.292;2023-04-22T03:30:49;68504.86;;;8.80;100.00
22930;BME280;11630;42.660;23.292;2023-04-22T03:33:19;68491.55;;;8.69;100.00
22930;BME280;11630;42.660;23.292;2023-04-22T03:35:50;68507.01;;;8.77;100.00
22930;BME280;11630;42.660;23.292;2023-04-22T03:38:21;68521.68;;;8.93;100.00
22930;BME280;11630;42.660;23.292;2023-04-22T03:40:51;68511.11;;;8.84;100.00
22930;BME280;11630;42.660;23.292;2023-04-22T03:43:21;68511.91;;;8.84;100.00
22930;BME280;11630;42.660;23.292;2023-04-22T03:45:52;68542.31;;;9.12;100.00
22930;BME280;11630;42.660;23.292;2023-04-22T03:48:23;68551.56;;;9.22;100.00
22930;BME280;11630;42.660;23.292;2023-04-22T03:50:54;68553.72;;;9.19;100.00
22930;BME280;11630;42.660;23.292;2023-04-22T03:53:25;68519.80;;;8.95;100.00
22930;BME280;11630;42.660;23.292;2023-04-22T03:55:56;68535.53;;;9.07;100.00
22930;BME280;11630;42.660;23.292;2023-04-22T03:58:27;68524.40;;;8.98;100.00
22930;BME280;11630;42.660;23.292;2023-04-22T04:00:58;68512.20;;;8.88;100.00
22930;BME280;11630;42.660;23.292;2023-04-22T04:03:29;68505.66;;;8.82;100.00
22930;BME280;11630;42.660;23.292;2023-04-22T04:06:00;68510.81;;;8.83;100.00
22930;BME280;11630;42.660;23.292;2023-04-22T04:08:31;68512.20;;;8.88;100.00
22930;BME280;11630;42.660;23.292;2023-04-22T04:11:01;68529.56;;;9.04;100.00
22930;BME280;11630;42.660;23.292;2023-04-22T04:13:32;68551.00;;;9.17;100.00
22930;BME280;11630;42.660;23.292;2023-04-22T04:16:03;68556.99;;;9.25;100.00
22930;BME280;11630;42.660;23.292;2023-04-22T04:18:34;68573.30;;;9.42;100.00
22930;BME280;11630;42.660;23.292;2023-04-22T04:21:04;68614.05;;;9.77;100.00
22930;BME280;11630;42.660;23.292;2023-04-22T04:23:35;68620.59;;;9.86;100.00
22930;BME280;11630;42.660;23.292;2023-04-22T04:26:06;68611.06;;;9.76;100.00
22930;BME280;11630;42.660;23.292;2023-04-22T04:28:36;68589.34;;;9.61;100.00
22930;BME280;11630;42.660;23.292;2023-04-22T04:31:07;68586.09;;;9.58;100.00
22930;BME280;11630;42.660;23.292;2023-04-22T04:33:38;68577.09;;;9.43;100.00
22930;BME280;11630;42.660;23.292;2023-04-22T04:36:09;68610.27;;;9.79;100.00
22930;BME280;11630;42.660;23.292;2023-04-22T04:38:42;68622.77;;;9.88;100.00
22930;BME280;11630;42.660;23.292;2023-04-22T04:41:13;68633.09;;;9.97;100.00
22930;BME280;11630;42.660;23.292;2023-04-22T04:43:43;68647.51;;;10.09;100.00
22930;BME280;11630;42.660;23.292;2023-04-22T04:46:14;68650.48;;;10.10;100.00
22930;BME280;11630;42.660;23.292;2023-04-22T04:48:46;68683.67;;;10.41;100.00
22930;BME280;11630;42.660;23.292;2023-04-22T04:51:16;68693.47;;;10.50;100.00
22930;BME280;11630;42.660;23.292;2023-04-22T04:53:46;68737.25;;;10.86;100.00
22930;BME280;11630;42.660;23.292;2023-04-22T04:56:18;68725.55;;;10.81;100.00
22930;BME280;11630;42.660;23.292;2023-04-22T04:58:49;68703.80;;;10.62;100.00
22930;BME280;11630;42.660;23.292;2023-04-22T05:01:19;68712.77;;;10.64;100.00
22930;BME280;11630;42.660;23.292;2023-04-22T05:03:49;68730.72;;;10.85;100.00
22930;BME280;11630;42.660;23.292;2023-04-22T05:06:21;68780.80;;;11.33;100.00
22930;BME280;11630;42.660;23.292;2023-04-22T05:08:51;68785.96;;;11.34;100.00
22930;BME280;11630;42.660;23.292;2023-04-22T05:11:21;68785.70;;;11.33;100.00
22930;BME280;11630;42.660;23.292;2023-04-22T05:13:52;68778.08;;;11.23;100.00
22930;BME280;11630;42.660;23.292;2023-04-22T05:16:23;68791.40;;;11.39;100.00
22930;BME280;11630;42.660;23.292;2023-04-22T05:18:54;68770.19;;;11.22;100.00
22930;BME280;11630;42.660;23.292;2023-04-22T05:21:24;68756.02;;;11.04;100.00
22930;BME280;11630;42.660;23.292;2023-04-22T05:23:54;68763.11;;;11.18;100.00
22930;BME280;11630;42.660;23.292;2023-04-22T05:26:24;68788.97;;;11.38;100.00
22930;BME280;11630;42.660;23.292;2023-04-22T05:28:54;68807.48;;;11.57;100.00
22930;BME280;11630;42.660;23.292;2023-04-22T05:31:25;68816.48;;;11.67;100.00
22930;BME280;11630;42.660;23.292;2023-04-22T05:33:55;68837.44;;;11.80;100.00
22930;BME280;11630;42.660;23.292;2023-04-22T05:36:26;68829.27;;;11.82;100.00
22930;BME280;11630;42.660;23.292;2023-04-22T05:38:57;68846.16;;;11.88;100.00
22930;BME280;11630;42.660;23.292;2023-04-22T05:41:28;68850.23;;;11.93;100.00
22930;BME280;11630;42.660;23.292;2023-04-22T05:44:01;68847.80;;;11.94;100.00
22930;BME280;11630;42.660;23.292;2023-04-22T05:46:32;68832.00;;;11.80;100.00
22930;BME280;11630;42.660;23.292;2023-04-22T05:49:02;68864.67;;;12.07;100.00
22930;BME280;11630;42.660;23.292;2023-04-22T05:51:33;68849.41;;;11.91;100.00
22930;BME280;11630;42.660;23.292;2023-04-22T05:54:04;68768.54;;;11.18;100.00
22930;BME280;11630;42.660;23.292;2023-04-22T05:56:35;68797.13;;;11.46;100.00
22930;BME280;11630;42.660;23.292;2023-04-22T05:59:06;68836.90;;;11.82;100.00
22930;BME280;11630;42.660;23.292;2023-04-22T06:01:37;68823.28;;;11.69;100.00
22930;BME280;11630;42.660;23.292;2023-04-22T06:04:09;68838.53;;;11.83;100.00
22930;BME280;11630;42.660;23.292;2023-04-22T06:06:39;68871.74;;;12.14;100.00
22930;BME280;11630;42.660;23.292;2023-04-22T06:09:10;68870.94;;;12.17;100.00
22930;BME280;11630;42.660;23.292;2023-04-22T06:11:41;68927.58;;;12.61;100.00
22930;BME280;11630;42.660;23.292;2023-04-22T06:14:12;68967.41;;;12.97;100.00
22930;BME280;11630;42.660;23.292;2023-04-22T06:16:43;68996.30;;;13.21;98.66
22930;BME280;11630;42.660;23.292;2023-04-22T06:19:15;68949.95;;;12.86;99.32
22930;BME280;11630;42.660;23.292;2023-04-22T06:21:46;68961.69;;;12.93;98.23
22930;BME280;11630;42.660;23.292;2023-04-22T06:24:16;69007.75;;;13.34;97.63
22930;BME280;11630;42.660;23.292;2023-04-22T06:26:46;69020.30;;;13.53;97.10
22930;BME280;11630;42.660;23.292;2023-04-22T06:29:17;69008.30;;;13.37;96.93
22930;BME280;11630;42.660;23.292;2023-04-22T06:31:48;68994.67;;;13.22;96.06
22930;BME280;11630;42.660;23.292;2023-04-22T06:34:19;69015.94;;;13.44;96.40
22930;BME280;11630;42.660;23.292;2023-04-22T06:36:50;69073.73;;;13.94;92.32
22930;BME280;11630;42.660;23.292;2023-04-22T06:39:21;69087.94;;;14.09;91.53
22930;BME280;11630;42.660;23.292;2023-04-22T06:41:52;69048.65;;;13.69;93.06
22930;BME280;11630;42.660;23.292;2023-04-22T06:44:22;69129.15;;;14.46;89.76
22930;BME280;11630;42.660;23.292;2023-04-22T06:46:53;69093.39;;;14.19;90.08
22930;BME280;11630;42.660;23.292;2023-04-22T06:49:25;69141.98;;;14.54;89.35
22930;BME280;11630;42.660;23.292;2023-04-22T06:51:55;69178.57;;;14.92;86.58
22930;BME280;11630;42.660;23.292;2023-04-22T06:54:26;69119.61;;;14.31;87.78
22930;BME280;11630;42.660;23.292;2023-04-22T06:56:57;69075.66;;;13.99;90.11
22930;BME280;11630;42.660;23.292;2023-04-22T06:59:28;69141.17;;;14.57;88.98
22930;BME280;11630;42.660;23.292;2023-04-22T07:01:59;69178.00;;;14.94;84.38
22930;BME280;11630;42.660;23.292;2023-04-22T07:04:30;69236.76;;;15.43;81.64
22930;BME280;11630;42.660;23.292;2023-04-22T07:07:00;69239.22;;;15.44;79.84
22930;BME280;11630;42.660;23.292;2023-04-22T07:09:31;69256.69;;;15.60;78.97
22930;BME280;11630;42.660;23.292;2023-04-22T07:12:03;69282.94;;;15.82;78.58
22930;BME280;11630;42.660;23.292;2023-04-22T07:14:35;69324.19;;;16.23;76.29
22930;BME280;11630;42.660;23.292;2023-04-22T07:17:06;69375.61;;;16.70;74.12
22930;BME280;11630;42.660;23.292;2023-04-22T07:19:40;69273.08;;;15.75;76.41
22930;BME280;11630;42.660;23.292;2023-04-22T07:22:11;69360.30;;;16.51;72.34
22930;BME280;11630;42.660;23.292;2023-04-22T07:24:42;69275.28;;;15.75;75.32
22930;BME280;11630;42.660;23.292;2023-04-22T07:27:15;69255.88;;;15.61;79.23
22930;BME280;11630;42.660;23.292;2023-04-22T07:29:45;69300.95;;;16.01;76.51
22930;BME280;11630;42.660;23.292;2023-04-22T07:32:18;69288.66;;;15.91;77.19
22930;BME280;11630;42.660;23.292;2023-04-22T07:34:50;69314.88;;;16.19;72.53
22930;BME280;11630;42.660;23.292;2023-04-22T07:37:23;69365.48;;;16.59;71.58
22930;BME280;11630;42.660;23.292;2023-04-22T07:39:53;69353.19;;;16.49;70.91
22930;BME280;11630;42.660;23.292;2023-04-22T07:42:24;69351.53;;;16.48;68.64
22930;BME280;11630;42.660;23.292;2023-04-22T07:44:58;69402.42;;;16.87;66.34
22930;BME280;11630;42.660;23.292;2023-04-22T07:47:29;69294.66;;;15.96;71.45
22930;BME280;11630;42.660;23.292;2023-04-22T07:50:01;69368.48;;;16.66;67.20
22930;BME280;11630;42.660;23.292;2023-04-22T07:52:32;69412.80;;;17.03;64.50
22930;BME280;11630;42.660;23.292;2023-04-22T07:55:03;69394.22;;;16.82;65.30
22930;BME280;11630;42.660;23.292;2023-04-22T07:57:34;69458.52;;;17.41;62.18
22930;BME280;11630;42.660;23.292;2023-04-22T08:00:07;69412.81;;;16.98;62.92
22930;BME280;11630;42.660;23.292;2023-04-22T08:02:38;69442.37;;;17.23;61.72
22930;BME280;11630;42.660;23.292;2023-04-22T08:05:08;69460.41;;;17.44;61.28
22930;BME280;11630;42.660;23.292;2023-04-22T08:07:38;69332.11;;;16.34;64.23
22930;BME280;11630;42.660;23.292;2023-04-22T08:10:09;69379.16;;;16.77;64.96
22930;BME280;11630;42.660;23.292;2023-04-22T08:12:40;69363.87;;;16.53;64.32
22930;BME280;11630;42.660;23.292;2023-04-22T08:15:12;69421.56;;;17.09;62.09
22930;BME280;11630;42.660;23.292;2023-04-22T08:17:42;69434.96;;;17.27;62.23
22930;BME280;11630;42.660;23.292;2023-04-22T08:20:14;69470.02;;;17.49;59.96
22930;BME280;11630;42.660;23.292;2023-04-22T08:22:45;69516.84;;;17.85;58.32
22930;BME280;11630;42.660;23.292;2023-04-22T08:25:15;69433.58;;;17.22;58.00
22930;BME280;11630;42.660;23.292;2023-04-22T08:27:45;69419.12;;;17.03;60.18
22930;BME280;11630;42.660;23.292;2023-04-22T08:30:16;69437.73;;;17.12;60.02
22930;BME280;11630;42.660;23.292;2023-04-22T08:32:47;69459.62;;;17.37;59.09
22930;BME280;11630;42.660;23.292;2023-04-22T08:35:20;69507.23;;;17.83;56.55
22930;BME280;11630;42.660;23.292;2023-04-22T08:37:51;69490.26;;;17.70;56.88
22930;BME280;11630;42.660;23.292;2023-04-22T08:40:22;69466.42;;;17.52;56.90
22930;BME280;11630;42.660;23.292;2023-04-22T08:42:56;69505.86;;;17.83;55.15
22930;BME280;11630;42.660;23.292;2023-04-22T08:45:26;69481.47;;;17.67;55.63
22930;BME280;11630;42.660;23.292;2023-04-22T08:47:57;69505.30;;;17.85;55.34
22930;BME280;11630;42.660;23.292;2023-04-22T08:50:29;69535.41;;;18.15;54.05
22930;BME280;11630;42.660;23.292;2023-04-22T08:53:01;69562.80;;;18.37;53.03
22930;BME280;11630;42.660;23.292;2023-04-22T08:55:32;69581.98;;;18.52;52.31
22930;BME280;11630;42.660;23.292;2023-04-22T08:58:04;69508.30;;;17.91;51.57
22930;BME280;11630;42.660;23.292;2023-04-22T09:00:36;69577.59;;;18.51;51.17
22930;BME280;11630;42.660;23.292;2023-04-22T09:03:07;69629.36;;;18.99;50.69
22930;BME280;11630;42.660;23.292;2023-04-22T09:05:42;69643.08;;;19.11;49.60
22930;BME280;11630;42.660;23.292;2023-04-22T09:08:11;69611.02;;;18.78;49.81
22930;BME280;11630;42.660;23.292;2023-04-22T09:10:42;69673.27;;;19.31;49.50
22930;BME280;11630;42.660;23.292;2023-04-22T09:13:12;69664.45;;;19.28;48.41
22930;BME280;11630;42.660;23.292;2023-04-22T09:15:44;69709.38;;;19.74;46.44
22930;BME280;11630;42.660;23.292;2023-04-22T09:18:16;69759.63;;;20.10;44.83
22930;BME280;11630;42.660;23.292;2023-04-22T09:20:47;69771.14;;;20.23;43.65
22930;BME280;11630;42.660;23.292;2023-04-22T09:23:20;69823.21;;;20.78;43.22
22930;BME280;11630;42.660;23.292;2023-04-22T09:25:50;69838.14;;;20.77;42.90
22930;BME280;11630;42.660;23.292;2023-04-22T09:28:21;69845.80;;;20.86;42.12
22930;BME280;11630;42.660;23.292;2023-04-22T09:30:52;69876.81;;;21.15;40.79
22930;BME280;11630;42.660;23.292;2023-04-22T09:33:24;69929.88;;;21.55;40.35
22930;BME280;11630;42.660;23.292;2023-04-22T09:35:53;69845.52;;;20.87;40.98
22930;BME280;11630;42.660;23.292;2023-04-22T09:38:29;69899.02;;;21.37;39.10
22930;BME280;11630;42.660;23.292;2023-04-22T09:40:57;69865.78;;;21.10;39.01
22930;BME280;11630;42.660;23.292;2023-04-22T09:43:29;69843.08;;;20.81;38.72
22930;BME280;11630;42.660;23.292;2023-04-22T09:46:00;69799.94;;;20.48;36.75
22930;BME280;11630;42.660;23.292;2023-04-22T09:48:31;69870.23;;;21.07;34.47
22930;BME280;11630;42.660;23.292;2023-04-22T09:51:04;69885.25;;;21.32;35.31
22930;BME280;11630;42.660;23.292;2023-04-22T09:53:36;69907.77;;;21.52;39.34
22930;BME280;11630;42.660;23.292;2023-04-22T09:56:07;69953.92;;;21.91;38.73
22930;BME280;11630;42.660;23.292;2023-04-22T09:58:41;70012.97;;;22.46;37.66
22930;BME280;11630;42.660;23.292;2023-04-22T10:01:14;70032.02;;;22.54;36.77
22930;BME280;11630;42.660;23.292;2023-04-22T10:03:47;70042.77;;;22.60;36.14
22930;BME280;11630;42.660;23.292;2023-04-22T10:06:18;70144.47;;;23.55;34.06
22930;BME280;11630;42.660;23.292;2023-04-22T10:08:50;70144.47;;;23.55;34.06
22930;BME280;11630;42.660;23.292;2023-04-22T10:11:21;70028.13;;;22.56;36.78
22930;BME280;11630;42.660;23.292;2023-04-22T10:13:51;70079.30;;;22.95;37.21
22930;BME280;11630;42.660;23.292;2023-04-22T10:16:23;69884.78;;;21.21;38.91
22930;BME280;11630;42.660;23.292;2023-04-22T10:18:55;69818.86;;;20.67;39.13
22930;BME280;11630;42.660;23.292;2023-04-22T10:21:29;69665.82;;;19.33;41.95
22930;BME280;11630;42.660;23.292;2023-04-22T10:24:04;69715.73;;;19.73;40.95
22930;BME280;11630;42.660;23.292;2023-04-22T10:26:57;69667.72;;;19.36;41.61
22930;BME280;11630;42.660;23.292;2023-04-22T10:29:25;69724.48;;;19.84;40.70
22930;BME280;11630;42.660;23.292;2023-04-22T10:32:26;69800.70;;;20.58;38.83
22930;BME280;11630;42.660;23.292;2023-04-22T10:34:36;69836.98;;;20.83;38.07
22930;BME280;11630;42.660;23.292;2023-04-22T10:37:13;69716.25;;;19.79;38.23
22930;BME280;11630;42.660;23.292;2023-04-22T10:40:06;69721.43;;;19.87;39.49
22930;BME280;11630;42.660;23.292;2023-04-22T10:42:15;69831.20;;;20.82;37.93
22930;BME280;11630;42.660;23.292;2023-04-22T10:44:53;69795.58;;;20.42;38.25
22930;BME280;11630;42.660;23.292;2023-04-22T10:47:33;69877.11;;;21.12;36.90
22930;BME280;11630;42.660;23.292;2023-04-22T10:50:11;69922.33;;;21.64;36.31
22930;BME280;11630;42.660;23.292;2023-04-22T10:52:51;69750.25;;;20.12;37.84
22930;BME280;11630;42.660;23.292;2023-04-22T10:55:20;69892.44;;;21.31;36.52
22930;BME280;11630;42.660;23.292;2023-04-22T10:57:54;69942.42;;;21.76;35.03
22930;BME280;11630;42.660;23.292;2023-04-22T11:00:38;70028.41;;;22.55;34.42
22930;BME280;11630;42.660;23.292;2023-04-22T11:03:11;70099.64;;;23.16;33.47
22930;BME280;11630;42.660;23.292;2023-04-22T11:05:41;70035.05;;;22.56;33.70
22930;BME280;11630;42.660;23.292;2023-04-22T11:08:18;70065.25;;;22.86;32.58
22930;BME280;11630;42.660;23.292;2023-04-22T11:10:50;70121.48;;;23.22;32.14
22930;BME280;11630;42.660;23.292;2023-04-22T11:13:22;70038.09;;;22.55;33.05
22930;BME280;11630;42.660;23.292;2023-04-22T11:15:56;70190.48;;;23.90;31.29
22930;BME280;11630;42.660;23.292;2023-04-22T11:18:27;70094.63;;;23.19;32.33
22930;BME280;11630;42.660;23.292;2023-04-22T11:21:02;70081.83;;;22.91;31.17
22930;BME280;11630;42.660;23.292;2023-04-22T11:23:30;70023.53;;;22.43;32.05
22930;BME280;11630;42.660;23.292;2023-04-22T11:26:07;70023.53;;;22.43;32.05
22930;BME280;11630;42.660;23.292;2023-04-22T11:28:32;69885.53;;;21.31;33.27
22930;BME280;11630;42.660;23.292;2023-04-22T11:31:07;69737.09;;;19.98;35.91
22930;BME280;11630;42.660;23.292;2023-04-22T11:33:38;69756.83;;;20.18;36.58
22930;BME280;11630;42.660;23.292;2023-04-22T11:36:14;69842.50;;;20.83;37.24
22930;BME280;11630;42.660;23.292;2023-04-22T11:38:54;69844.09;;;20.92;37.86
22930;BME280;11630;42.660;23.292;2023-04-22T11:41:26;69752.55;;;19.97;39.21
22930;BME280;11630;42.660;23.292;2023-04-22T11:43:56;69719.01;;;19.79;41.13
22930;BME280;11630;42.660;23.292;2023-04-22T11:46:29;69600.59;;;18.74;43.28
22930;BME280;11630;42.660;23.292;2023-04-22T11:49:13;69604.73;;;18.71;43.55
22930;BME280;11630;42.660;23.292;2023-04-22T11:51:54;69518.98;;;18.00;46.42
22930;BME280;11630;42.660;23.292;2023-04-22T11:54:35;69698.70;;;19.63;43.29
22930;BME280;11630;42.660;23.292;2023-04-22T11:57:07;69848.33;;;20.82;41.06
22930;BME280;11630;42.660;23.292;2023-04-22T11:59:39;69726.98;;;19.82;42.23
22930;BME280;11630;42.660;23.292;2023-04-22T12:02:10;69698.42;;;19.64;42.46
22930;BME280;11630;42.660;23.292;2023-04-22T12:04:42;69683.60;;;19.53;41.92
22930;BME280;11630;42.660;23.292;2023-04-22T12:07:17;69678.44;;;19.42;41.99
22930;BME280;11630;42.660;23.292;2023-04-22T12:09:52;69734.90;;;19.96;42.16
22930;BME280;11630;42.660;23.292;2023-04-22T12:12:24;69754.61;;;20.18;42.08
22930;BME280;11630;42.660;23.292;2023-04-22T12:14:55;69907.27;;;21.44;40.22
22930;BME280;11630;42.660;23.292;2023-04-22T12:17:26;69919.41;;;21.48;39.79
22930;BME280;11630;42.660;23.292;2023-04-22T12:19:57;69949.38;;;21.71;39.33
22930;BME280;11630;42.660;23.292;2023-04-22T12:22:29;69853.42;;;21.03;40.05
22930;BME280;11630;42.660;23.292;2023-04-22T12:25:01;69867.97;;;21.15;40.67
22930;BME280;11630;42.660;23.292;2023-04-22T12:27:32;69824.40;;;20.64;41.49
22930;BME280;11630;42.660;23.292;2023-04-22T12:30:03;69729.72;;;19.85;42.92
22930;BME280;11630;42.660;23.292;2023-04-22T12:32:34;69655.67;;;19.25;44.75
22930;BME280;11630;42.660;23.292;2023-04-22T12:35:05;69758.00;;;20.07;42.51
22930;BME280;11630;42.660;23.292;2023-04-22T12:37:36;69790.84;;;20.46;41.92
22930;BME280;11630;42.660;23.292;2023-04-22T12:40:08;69826.81;;;20.78;41.50
22930;BME280;11630;42.660;23.292;2023-04-22T12:42:39;69734.08;;;19.94;42.26
22930;BME280;11630;42.660;23.292;2023-04-22T12:45:09;69765.63;;;20.23;41.75
22930;BME280;11630;42.660;23.292;2023-04-22T12:47:40;69680.60;;;19.46;42.96
22930;BME280;11630;42.660;23.292;2023-04-22T12:50:11;69623.63;;;18.90;43.21
22930;BME280;11630;42.660;23.292;2023-04-22T12:52:42;69673.21;;;19.41;42.96
22930;BME280;11630;42.660;23.292;2023-04-22T12:55:13;69725.55;;;19.90;42.21
22930;BME280;11630;42.660;23.292;2023-04-22T12:57:46;69709.38;;;19.74;44.05
22930;BME280;11630;42.660;23.292;2023-04-22T13:00:20;69686.39;;;19.48;45.19
22930;BME280;11630;42.660;23.292;2023-04-22T13:02:50;69690.54;;;19.43;45.86
22930;BME280;11630;42.660;23.292;2023-04-22T13:05:20;69715.91;;;19.87;45.01
22930;BME280;11630;42.660;23.292;2023-04-22T13:07:51;69785.14;;;20.32;42.87
22930;BME280;11630;42.660;23.292;2023-04-22T13:10:22;69626.63;;;18.96;44.92